Historyczne dane pomiarowe

Dodano dane terminowe – wersja testowa.

Dane z okresu 1951-2019

Wersja bazy: 1.34 [2019-03-16, lista zmian], aktualizacja planowana na 2019-04-15

Dane meteo z obszaru Polski uzyskane na podstawie danych udostępnionych przez Instytut Meteorologii i Gospodarki Wodnej – Państwowy Instytut Badawczy.

 

Wybierz Datę:    

       

TemperaturaWilgotnośćWiatrCiśnienieOpadyŚniegCzas trwania zjawisk
 Stacja t tx tn tng RH VA  wxwx mslp ppp RRR   cm mm wxwxwxwxwxwxwx
2014-10-10 14.7 21.9 8.8 6.2-- 6.7----- 0.2------------
2014-10-09 16.1 25.8 10.0 6.6-- 6.7----- 0.0------------
2014-10-08 15.2 19.2 12.8 10.9-- 7.3----- 0.1------------
2014-10-07 12.9 19.4 8.3 6.6-- 5.7----- 0.0------------
2014-10-06 10.5 17.5 5.8 4.2-- 3.0----- 0.0------------
2014-10-05 8.7 13.4 4.3 1.3-- 0.7----- 0.0------------
2014-10-04 9.4 17.5 4.3 2.6-- 1.0----- 0.0------------
2014-10-03 12.1 18.9 7.1 5.1-- 0.7----- 0.0------------
2014-10-02 13.3 17.3 10.9 7.4-- 3.0----- 0.0------------
2014-10-01 14.6 18.2 13.0 8.8-- 7.0----- 0.0------------
2014-09-30 17.4 20.2 15.0 9.8-- 6.3----- 0.0------------
2014-09-29 14.1 23.7 6.5 3.9-- 6.3----- 0.0------------
2014-09-28 11.6 19.8 5.0 2.9-- 6.3----- 0.0------------
2014-09-27 14.5 17.8 13.0 7.8-- 6.3----- 0.9------------
2014-09-26 12.8 14.7 10.5 9.8-- 6.3----- 1.8------------
2014-09-25 12.5 17.8 9.0 3.4-- 6.0----- 4.1------------
2014-09-24 8.7 16.7 3.0 0.5-- 6.3----- 0.0------------
2014-09-23 10.8 14.2 9.0 8.3-- 6.0----- 0.0------------
2014-09-22 12.7 17.1 10.5 8.8-- 6.3----- 2.5------------
2014-09-21 18.9 24.7 16.5 12.8-- 6.3----- 2.9------------
2014-09-20 19.4 23.7 16.5 13.8-- 6.7----- 5.5------------
2014-09-19 17.0 21.8 13.0 7.9-- 6.7----- 0.9------------
2014-09-18 17.0 23.7 12.0 7.9-- 6.3----- 0.0------------
2014-09-17 17.0 23.7 12.0 8.3-- 6.3----- 0.0------------
2014-09-16 17.3 23.7 13.5 9.8-- 6.3----- 0.0------------
2014-09-15 19.2 25.7 15.0 9.8-- 6.3----- 0.0------------
2014-09-14 19.9 24.3 17.0 13.8-- 6.3----- 0.0------------
2014-09-13 17.4 20.8 15.0 12.3-- 6.3----- 0.0------------
2014-09-12 19.0 23.7 15.0 13.8-- 6.0----- 0.0------------
2014-09-11 14.2 17.8 11.5 8.9-- 6.0----- 13.5------------
2014-09-10 15.0 17.8 13.0 9.8-- 6.3----- 0.0------------
2014-09-09 16.8 21.1 14.5 10.4-- 6.3----- 0.0------------
2014-09-08 19.2 24.7 15.0 9.8-- 6.7----- 14.0------------
2014-09-07 19.6 26.6 14.5 9.9-- 6.3----- 0.0------------
2014-09-06 17.2 25.7 11.0 6.4-- 6.7----- 0.0------------
2014-09-05 18.0 24.7 13.0 7.9-- 6.3----- 0.0------------
2014-09-04 16.9 23.7 12.0 6.9-- 6.0----- 0.0------------
2014-09-03 16.2 20.8 12.0 10.8-- 6.0----- 0.0------------
2014-09-02 13.7 16.1 12.5 12.3-- 6.0----- 5.4------------
2014-09-01 15.0 16.7 13.0 11.8-- 6.0----- 22.0------------
2014-08-31 16.2 20.2 14.5 9.8-- 6.0----- 10.1------------
2014-08-30 17.2 25.7 11.0 7.9-- 6.3----- 0.0------------
2014-08-29 16.7 23.7 11.0 3.9-- 6.7----- 4.2------------
2014-08-28 14.8 22.7 10.0 2.0-- 7.0----- 0.0------------
2014-08-27 13.2 19.8 9.0 3.8-- 7.3----- 0.0------------
2014-08-26 12.0 15.0 10.0 9.3-- 6.0----- 3.4------------
2014-08-25 13.3 19.8 7.2 3.9-- 7.3----- 0.0------------
2014-08-24 15.0 18.8 12.0 8.8-- 7.0----- 0.0------------
2014-08-23 16.6 22.8 13.0 4.9-- 7.0----- 1.6------------
2014-08-22 16.1 23.7 10.5 4.9-- 7.0----- 0.0------------
2014-08-21 14.1 20.8 8.4 5.0-- 7.0----- 0.9------------
2014-08-20 15.2 20.8 12.0 7.8-- 7.0----- 0.0------------
2014-08-19 16.1 22.3 12.0 8.8-- 7.0----- 0.0------------
2014-08-18 16.5 20.8 13.0 8.3-- 6.7----- 2.0------------
2014-08-17 17.5 21.8 14.0 9.8-- 6.3----- 0.0------------
2014-08-16 16.2 20.8 13.0 10.2-- 6.0----- 0.9------------
2014-08-15 17.1 22.7 12.5 8.3-- 6.7----- 2.2------------
2014-08-14 18.1 23.2 14.0 13.8-- 7.0----- 0.3------------
2014-08-13 19.0 24.7 11.5 7.9-- 7.0----- 0.2------------
2014-08-12 17.5 24.7 13.0 7.4-- 7.0----- 0.3------------
229.0 ms

 

Źródłem pochodzenia danych jest Instytut Meteorologii i Gospodarki Wodnej – Państwowy Instytut Badawczy. Dane Instytutu Meteorologii i Gospodarki Wodnej – Państwowego Instytutu Badawczego zostały przetworzone.

Dane źródłowe można odnaleźć na stronie https://dane.imgw.pl